sensor_id;sensor_type;location;lat;lon;timestamp;P1;durP1;ratioP1;P2;durP2;ratioP2
18162;SDS011;9206;50.994;4.538;2023-03-23T00:00:25;3.17;;;2.97;;
18162;SDS011;9206;50.994;4.538;2023-03-23T00:09:56;3.60;;;3.27;;
18162;SDS011;9206;50.994;4.538;2023-03-23T00:12:44;4.17;;;3.67;;
18162;SDS011;9206;50.994;4.538;2023-03-23T00:15:41;4.23;;;3.73;;
18162;SDS011;9206;50.994;4.538;2023-03-23T00:18:37;4.27;;;3.87;;
18162;SDS011;9206;50.994;4.538;2023-03-23T00:22:01;4.40;;;4.00;;
18162;SDS011;9206;50.994;4.538;2023-03-23T00:28:03;4.40;;;4.03;;
18162;SDS011;9206;50.994;4.538;2023-03-23T00:31:10;3.60;;;3.30;;
18162;SDS011;9206;50.994;4.538;2023-03-23T00:34:10;3.60;;;3.40;;
18162;SDS011;9206;50.994;4.538;2023-03-23T00:43:41;4.03;;;3.40;;
18162;SDS011;9206;50.994;4.538;2023-03-23T00:46:29;3.57;;;3.27;;
18162;SDS011;9206;50.994;4.538;2023-03-23T00:49:29;3.77;;;3.57;;
18162;SDS011;9206;50.994;4.538;2023-03-23T00:52:29;5.27;;;3.30;;
18162;SDS011;9206;50.994;4.538;2023-03-23T00:55:25;3.67;;;3.37;;
18162;SDS011;9206;50.994;4.538;2023-03-23T00:58:48;4.73;;;3.33;;
18162;SDS011;9206;50.994;4.538;2023-03-23T01:01:40;3.87;;;3.57;;
18162;SDS011;9206;50.994;4.538;2023-03-23T01:07:29;3.53;;;3.27;;
18162;SDS011;9206;50.994;4.538;2023-03-23T01:10:24;3.60;;;3.30;;
18162;SDS011;9206;50.994;4.538;2023-03-23T01:13:28;3.13;;;2.90;;
18162;SDS011;9206;50.994;4.538;2023-03-23T01:19:33;3.63;;;3.40;;
18162;SDS011;9206;50.994;4.538;2023-03-23T01:22:35;3.27;;;3.03;;
18162;SDS011;9206;50.994;4.538;2023-03-23T01:25:38;4.03;;;2.90;;
18162;SDS011;9206;50.994;4.538;2023-03-23T01:28:29;3.47;;;3.27;;
18162;SDS011;9206;50.994;4.538;2023-03-23T01:31:20;3.83;;;3.40;;
18162;SDS011;9206;50.994;4.538;2023-03-23T01:34:14;3.87;;;3.50;;
18162;SDS011;9206;50.994;4.538;2023-03-23T01:37:17;3.63;;;3.17;;
18162;SDS011;9206;50.994;4.538;2023-03-23T01:40:15;4.33;;;3.70;;
18162;SDS011;9206;50.994;4.538;2023-03-23T01:43:34;3.80;;;3.50;;
18162;SDS011;9206;50.994;4.538;2023-03-23T01:46:22;3.60;;;3.40;;
18162;SDS011;9206;50.994;4.538;2023-03-23T01:49:27;3.47;;;3.27;;
18162;SDS011;9206;50.994;4.538;2023-03-23T01:56:22;3.23;;;2.93;;
18162;SDS011;9206;50.994;4.538;2023-03-23T01:59:26;3.40;;;3.20;;
18162;SDS011;9206;50.994;4.538;2023-03-23T02:02:18;3.23;;;3.03;;
18162;SDS011;9206;50.994;4.538;2023-03-23T02:05:40;3.87;;;3.50;;
18162;SDS011;9206;50.994;4.538;2023-03-23T02:14:52;4.13;;;2.97;;
18162;SDS011;9206;50.994;4.538;2023-03-23T02:18:00;3.57;;;3.27;;
18162;SDS011;9206;50.994;4.538;2023-03-23T02:24:48;3.20;;;2.90;;
18162;SDS011;9206;50.994;4.538;2023-03-23T02:31:44;3.87;;;2.67;;
18162;SDS011;9206;50.994;4.538;2023-03-23T02:34:45;3.03;;;2.83;;
18162;SDS011;9206;50.994;4.538;2023-03-23T02:37:44;3.43;;;2.50;;
18162;SDS011;9206;50.994;4.538;2023-03-23T02:40:41;4.57;;;2.07;;
18162;SDS011;9206;50.994;4.538;2023-03-23T02:43:36;7.87;;;2.50;;
18162;SDS011;9206;50.994;4.538;2023-03-23T02:46:40;3.43;;;2.30;;
18162;SDS011;9206;50.994;4.538;2023-03-23T02:52:58;3.37;;;2.27;;
18162;SDS011;9206;50.994;4.538;2023-03-23T02:55:48;2.30;;;2.10;;
18162;SDS011;9206;50.994;4.538;2023-03-23T02:59:00;1.80;;;1.70;;
18162;SDS011;9206;50.994;4.538;2023-03-23T03:02:04;2.67;;;1.70;;
18162;SDS011;9206;50.994;4.538;2023-03-23T03:05:14;3.10;;;1.70;;
18162;SDS011;9206;50.994;4.538;2023-03-23T03:08:21;2.03;;;1.60;;
18162;SDS011;9206;50.994;4.538;2023-03-23T03:11:15;3.60;;;1.73;;
18162;SDS011;9206;50.994;4.538;2023-03-23T03:14:16;2.37;;;1.67;;
18162;SDS011;9206;50.994;4.538;2023-03-23T03:17:34;1.43;;;1.37;;
18162;SDS011;9206;50.994;4.538;2023-03-23T03:20:40;1.77;;;1.63;;
18162;SDS011;9206;50.994;4.538;2023-03-23T03:23:40;3.37;;;1.90;;
18162;SDS011;9206;50.994;4.538;2023-03-23T03:26:32;4.37;;;1.67;;
18162;SDS011;9206;50.994;4.538;2023-03-23T03:32:41;2.80;;;1.43;;
18162;SDS011;9206;50.994;4.538;2023-03-23T03:35:48;1.57;;;1.43;;
18162;SDS011;9206;50.994;4.538;2023-03-23T03:42:33;3.03;;;1.53;;
18162;SDS011;9206;50.994;4.538;2023-03-23T03:45:27;4.07;;;1.50;;
18162;SDS011;9206;50.994;4.538;2023-03-23T03:48:26;2.20;;;1.47;;
18162;SDS011;9206;50.994;4.538;2023-03-23T03:51:23;1.63;;;1.53;;
18162;SDS011;9206;50.994;4.538;2023-03-23T03:54:35;2.67;;;2.00;;
18162;SDS011;9206;50.994;4.538;2023-03-23T03:57:23;1.90;;;1.70;;
18162;SDS011;9206;50.994;4.538;2023-03-23T04:00:14;2.07;;;1.67;;
18162;SDS011;9206;50.994;4.538;2023-03-23T04:03:17;3.57;;;1.90;;
18162;SDS011;9206;50.994;4.538;2023-03-23T04:06:30;4.07;;;1.83;;
18162;SDS011;9206;50.994;4.538;2023-03-23T04:09:21;2.97;;;1.73;;
18162;SDS011;9206;50.994;4.538;2023-03-23T04:15:43;3.33;;;1.63;;
18162;SDS011;9206;50.994;4.538;2023-03-23T04:19:10;2.60;;;1.63;;
18162;SDS011;9206;50.994;4.538;2023-03-23T04:25:16;4.63;;;1.97;;
18162;SDS011;9206;50.994;4.538;2023-03-23T04:28:18;5.43;;;1.93;;
18162;SDS011;9206;50.994;4.538;2023-03-23T04:31:12;6.70;;;1.73;;
18162;SDS011;9206;50.994;4.538;2023-03-23T04:34:15;5.00;;;2.20;;
18162;SDS011;9206;50.994;4.538;2023-03-23T04:37:40;3.33;;;1.60;;
18162;SDS011;9206;50.994;4.538;2023-03-23T04:40:31;7.97;;;2.33;;
18162;SDS011;9206;50.994;4.538;2023-03-23T04:46:28;6.47;;;2.10;;
18162;SDS011;9206;50.994;4.538;2023-03-23T04:49:18;3.67;;;1.50;;
18162;SDS011;9206;50.994;4.538;2023-03-23T04:55:37;3.20;;;1.77;;
18162;SDS011;9206;50.994;4.538;2023-03-23T04:58:51;4.67;;;1.87;;
18162;SDS011;9206;50.994;4.538;2023-03-23T05:05:22;5.13;;;1.70;;
18162;SDS011;9206;50.994;4.538;2023-03-23T05:08:13;4.57;;;1.77;;
18162;SDS011;9206;50.994;4.538;2023-03-23T05:11:13;5.77;;;1.90;;
18162;SDS011;9206;50.994;4.538;2023-03-23T05:14:03;6.03;;;2.30;;
18162;SDS011;9206;50.994;4.538;2023-03-23T05:16:50;1.50;;;1.40;;
18162;SDS011;9206;50.994;4.538;2023-03-23T05:19:43;4.17;;;1.83;;
18162;SDS011;9206;50.994;4.538;2023-03-23T05:22:32;2.10;;;1.60;;
18162;SDS011;9206;50.994;4.538;2023-03-23T05:25:41;2.67;;;1.67;;
18162;SDS011;9206;50.994;4.538;2023-03-23T05:28:39;4.53;;;1.40;;
18162;SDS011;9206;50.994;4.538;2023-03-23T05:31:29;3.57;;;1.90;;
18162;SDS011;9206;50.994;4.538;2023-03-23T05:34:19;6.07;;;1.87;;
18162;SDS011;9206;50.994;4.538;2023-03-23T05:37:08;5.67;;;1.50;;
18162;SDS011;9206;50.994;4.538;2023-03-23T05:39:59;4.37;;;2.00;;
18162;SDS011;9206;50.994;4.538;2023-03-23T05:42:51;6.70;;;2.30;;
18162;SDS011;9206;50.994;4.538;2023-03-23T05:45:42;3.80;;;1.77;;
18162;SDS011;9206;50.994;4.538;2023-03-23T05:48:41;3.27;;;1.80;;
18162;SDS011;9206;50.994;4.538;2023-03-23T05:51:54;5.47;;;1.60;;
18162;SDS011;9206;50.994;4.538;2023-03-23T05:54:43;8.47;;;1.80;;
18162;SDS011;9206;50.994;4.538;2023-03-23T05:57:36;3.47;;;1.93;;
18162;SDS011;9206;50.994;4.538;2023-03-23T06:00:24;3.37;;;2.43;;
18162;SDS011;9206;50.994;4.538;2023-03-23T06:03:16;2.93;;;1.80;;
18162;SDS011;9206;50.994;4.538;2023-03-23T06:06:28;4.73;;;1.93;;
18162;SDS011;9206;50.994;4.538;2023-03-23T06:09:24;6.10;;;1.90;;
18162;SDS011;9206;50.994;4.538;2023-03-23T06:12:37;4.37;;;1.90;;
18162;SDS011;9206;50.994;4.538;2023-03-23T06:15:27;3.53;;;1.60;;
18162;SDS011;9206;50.994;4.538;2023-03-23T06:18:22;3.47;;;1.93;;
18162;SDS011;9206;50.994;4.538;2023-03-23T06:21:13;4.03;;;2.20;;
18162;SDS011;9206;50.994;4.538;2023-03-23T06:24:04;5.63;;;2.20;;
18162;SDS011;9206;50.994;4.538;2023-03-23T06:27:20;5.50;;;1.80;;
18162;SDS011;9206;50.994;4.538;2023-03-23T06:30:39;3.80;;;1.63;;
18162;SDS011;9206;50.994;4.538;2023-03-23T06:33:37;5.07;;;2.23;;
18162;SDS011;9206;50.994;4.538;2023-03-23T06:36:26;4.93;;;1.93;;
18162;SDS011;9206;50.994;4.538;2023-03-23T06:39:33;8.33;;;1.80;;
18162;SDS011;9206;50.994;4.538;2023-03-23T06:42:33;3.33;;;1.90;;
18162;SDS011;9206;50.994;4.538;2023-03-23T06:45:24;10.93;;;2.40;;
18162;SDS011;9206;50.994;4.538;2023-03-23T06:48:23;1.70;;;0.90;;
18162;SDS011;9206;50.994;4.538;2023-03-23T06:51:16;2.53;;;0.60;;
18162;SDS011;9206;50.994;4.538;2023-03-23T06:54:10;2.77;;;0.90;;
18162;SDS011;9206;50.994;4.538;2023-03-23T07:00:22;3.57;;;1.20;;
18162;SDS011;9206;50.994;4.538;2023-03-23T07:03:31;1.10;;;1.07;;
18162;SDS011;9206;50.994;4.538;2023-03-23T07:06:35;1.20;;;1.00;;
18162;SDS011;9206;50.994;4.538;2023-03-23T07:09:47;1.20;;;1.07;;
18162;SDS011;9206;50.994;4.538;2023-03-23T07:12:45;1.27;;;1.17;;
18162;SDS011;9206;50.994;4.538;2023-03-23T07:15:52;1.23;;;1.00;;
18162;SDS011;9206;50.994;4.538;2023-03-23T07:18:43;2.43;;;1.40;;
18162;SDS011;9206;50.994;4.538;2023-03-23T07:21:40;2.33;;;1.03;;
18162;SDS011;9206;50.994;4.538;2023-03-23T07:28:08;1.03;;;0.80;;
18162;SDS011;9206;50.994;4.538;2023-03-23T07:34:08;2.27;;;1.33;;
18162;SDS011;9206;50.994;4.538;2023-03-23T07:36:58;7.47;;;1.93;;
18162;SDS011;9206;50.994;4.538;2023-03-23T07:39:54;11.03;;;1.90;;
18162;SDS011;9206;50.994;4.538;2023-03-23T07:45:44;28.57;;;3.73;;
18162;SDS011;9206;50.994;4.538;2023-03-23T07:48:44;14.40;;;2.23;;
18162;SDS011;9206;50.994;4.538;2023-03-23T07:51:42;10.03;;;1.70;;
18162;SDS011;9206;50.994;4.538;2023-03-23T07:57:56;11.50;;;2.20;;
18162;SDS011;9206;50.994;4.538;2023-03-23T08:00:57;1.77;;;1.17;;
18162;SDS011;9206;50.994;4.538;2023-03-23T08:03:53;1.37;;;1.23;;
18162;SDS011;9206;50.994;4.538;2023-03-23T08:06:45;2.83;;;1.00;;
18162;SDS011;9206;50.994;4.538;2023-03-23T08:09:48;2.70;;;1.00;;
18162;SDS011;9206;50.994;4.538;2023-03-23T08:12:38;5.70;;;1.37;;
18162;SDS011;9206;50.994;4.538;2023-03-23T08:18:42;1.43;;;1.33;;
18162;SDS011;9206;50.994;4.538;2023-03-23T08:21:33;2.93;;;1.07;;
18162;SDS011;9206;50.994;4.538;2023-03-23T08:24:23;3.70;;;1.70;;
18162;SDS011;9206;50.994;4.538;2023-03-23T08:27:13;4.50;;;1.30;;
18162;SDS011;9206;50.994;4.538;2023-03-23T08:30:02;4.87;;;1.27;;
18162;SDS011;9206;50.994;4.538;2023-03-23T08:33:01;1.43;;;1.33;;
18162;SDS011;9206;50.994;4.538;2023-03-23T08:35:56;3.03;;;1.80;;
18162;SDS011;9206;50.994;4.538;2023-03-23T08:38:51;5.53;;;2.30;;
18162;SDS011;9206;50.994;4.538;2023-03-23T08:42:24;5.00;;;1.70;;
18162;SDS011;9206;50.994;4.538;2023-03-23T08:47:42;2.90;;;1.77;;
18162;SDS011;9206;50.994;4.538;2023-03-23T08:54:19;2.70;;;1.47;;
18162;SDS011;9206;50.994;4.538;2023-03-23T08:57:34;4.03;;;1.47;;
18162;SDS011;9206;50.994;4.538;2023-03-23T09:00:25;4.53;;;1.57;;
18162;SDS011;9206;50.994;4.538;2023-03-23T09:04:04;2.53;;;1.30;;
18162;SDS011;9206;50.994;4.538;2023-03-23T09:06:27;5.53;;;1.70;;
18162;SDS011;9206;50.994;4.538;2023-03-23T09:15:58;4.97;;;1.60;;
18162;SDS011;9206;50.994;4.538;2023-03-23T09:18:46;2.33;;;1.60;;
18162;SDS011;9206;50.994;4.538;2023-03-23T09:25:50;3.33;;;1.40;;
18162;SDS011;9206;50.994;4.538;2023-03-23T09:31:45;2.67;;;1.40;;
18162;SDS011;9206;50.994;4.538;2023-03-23T09:34:33;4.67;;;1.40;;
18162;SDS011;9206;50.994;4.538;2023-03-23T09:38:01;3.77;;;1.80;;
18162;SDS011;9206;50.994;4.538;2023-03-23T09:41:01;1.23;;;1.20;;
18162;SDS011;9206;50.994;4.538;2023-03-23T09:44:16;3.63;;;1.63;;
18162;SDS011;9206;50.994;4.538;2023-03-23T10:02:04;2.90;;;1.45;;
18162;SDS011;9206;50.994;4.538;2023-03-23T10:08:56;4.10;;;1.20;;
18162;SDS011;9206;50.994;4.538;2023-03-23T10:12:27;1.90;;;1.42;;
18162;SDS011;9206;50.994;4.538;2023-03-23T10:23:33;1.80;;;1.50;;
18162;SDS011;9206;50.994;4.538;2023-03-23T10:26:39;2.93;;;1.53;;
18162;SDS011;9206;50.994;4.538;2023-03-23T10:33:14;5.97;;;2.43;;
18162;SDS011;9206;50.994;4.538;2023-03-23T10:36:19;5.27;;;1.97;;
18162;SDS011;9206;50.994;4.538;2023-03-23T10:43:39;5.77;;;2.30;;
18162;SDS011;9206;50.994;4.538;2023-03-23T10:50:29;2.43;;;1.77;;
18162;SDS011;9206;50.994;4.538;2023-03-23T10:53:57;3.23;;;1.73;;
18162;SDS011;9206;50.994;4.538;2023-03-23T11:29:04;5.40;;;2.22;;
18162;SDS011;9206;50.994;4.538;2023-03-23T11:32:09;4.72;;;2.08;;
18162;SDS011;9206;50.994;4.538;2023-03-23T11:35:05;8.65;;;2.47;;
18162;SDS011;9206;50.994;4.538;2023-03-23T11:41:08;5.80;;;2.92;;
18162;SDS011;9206;50.994;4.538;2023-03-23T11:44:14;3.50;;;2.40;;
18162;SDS011;9206;50.994;4.538;2023-03-23T11:48:01;8.80;;;2.20;;
18162;SDS011;9206;50.994;4.538;2023-03-23T11:50:59;8.05;;;2.35;;
18162;SDS011;9206;50.994;4.538;2023-03-23T11:54:09;4.70;;;1.88;;
18162;SDS011;9206;50.994;4.538;2023-03-23T12:00:56;3.95;;;2.30;;
18162;SDS011;9206;50.994;4.538;2023-03-23T12:03:54;4.57;;;2.38;;
18162;SDS011;9206;50.994;4.538;2023-03-23T12:07:29;6.28;;;2.40;;
18162;SDS011;9206;50.994;4.538;2023-03-23T12:11:10;2.80;;;2.22;;
18162;SDS011;9206;50.994;4.538;2023-03-23T12:42:06;6.03;;;1.80;;
18162;SDS011;9206;50.994;4.538;2023-03-23T12:45:06;6.13;;;2.00;;
18162;SDS011;9206;50.994;4.538;2023-03-23T12:51:54;6.70;;;1.90;;
18162;SDS011;9206;50.994;4.538;2023-03-23T13:07:05;4.95;;;2.25;;
18162;SDS011;9206;50.994;4.538;2023-03-23T13:10:45;8.70;;;2.35;;
18162;SDS011;9206;50.994;4.538;2023-03-23T13:13:42;6.20;;;2.10;;
18162;SDS011;9206;50.994;4.538;2023-03-23T13:20:23;6.47;;;2.17;;
18162;SDS011;9206;50.994;4.538;2023-03-23T13:23:49;7.75;;;2.00;;
18162;SDS011;9206;50.994;4.538;2023-03-23T13:26:43;4.60;;;2.13;;
18162;SDS011;9206;50.994;4.538;2023-03-23T13:30:30;5.65;;;2.22;;
18162;SDS011;9206;50.994;4.538;2023-03-23T13:36:38;6.35;;;2.00;;
18162;SDS011;9206;50.994;4.538;2023-03-23T13:40:11;4.00;;;2.38;;
18162;SDS011;9206;50.994;4.538;2023-03-23T13:44:41;4.10;;;2.15;;
18162;SDS011;9206;50.994;4.538;2023-03-23T13:47:16;5.35;;;2.30;;
18162;SDS011;9206;50.994;4.538;2023-03-23T14:04:31;4.18;;;1.92;;
18162;SDS011;9206;50.994;4.538;2023-03-23T14:14:20;10.63;;;2.58;;
18162;SDS011;9206;50.994;4.538;2023-03-23T14:17:25;8.90;;;2.65;;
18162;SDS011;9206;50.994;4.538;2023-03-23T14:34:18;3.13;;;2.22;;
18162;SDS011;9206;50.994;4.538;2023-03-23T14:37:12;5.07;;;1.90;;
18162;SDS011;9206;50.994;4.538;2023-03-23T14:40:08;9.18;;;2.08;;
18162;SDS011;9206;50.994;4.538;2023-03-23T14:43:04;12.70;;;2.05;;
18162;SDS011;9206;50.994;4.538;2023-03-23T14:53:10;5.40;;;2.50;;
18162;SDS011;9206;50.994;4.538;2023-03-23T14:59:03;10.07;;;2.65;;
18162;SDS011;9206;50.994;4.538;2023-03-23T15:04:52;9.33;;;2.53;;
18162;SDS011;9206;50.994;4.538;2023-03-23T15:07:47;5.70;;;2.13;;
18162;SDS011;9206;50.994;4.538;2023-03-23T15:14:27;4.77;;;2.33;;
18162;SDS011;9206;50.994;4.538;2023-03-23T15:17:36;5.83;;;2.17;;
18162;SDS011;9206;50.994;4.538;2023-03-23T15:20:28;5.17;;;2.20;;
18162;SDS011;9206;50.994;4.538;2023-03-23T15:34:40;6.43;;;2.37;;
18162;SDS011;9206;50.994;4.538;2023-03-23T15:43:51;8.00;;;2.80;;
18162;SDS011;9206;50.994;4.538;2023-03-23T15:50:34;11.03;;;3.20;;
18162;SDS011;9206;50.994;4.538;2023-03-23T15:53:32;10.77;;;3.33;;
18162;SDS011;9206;50.994;4.538;2023-03-23T15:56:31;5.23;;;2.90;;
18162;SDS011;9206;50.994;4.538;2023-03-23T16:03:11;6.83;;;2.63;;
18162;SDS011;9206;50.994;4.538;2023-03-23T16:10:10;5.07;;;2.80;;
18162;SDS011;9206;50.994;4.538;2023-03-23T16:13:29;6.00;;;2.87;;
18162;SDS011;9206;50.994;4.538;2023-03-23T16:16:25;5.80;;;2.80;;
18162;SDS011;9206;50.994;4.538;2023-03-23T16:23:24;8.77;;;3.00;;
18162;SDS011;9206;50.994;4.538;2023-03-23T16:26:41;6.93;;;3.10;;
18162;SDS011;9206;50.994;4.538;2023-03-23T16:30:49;4.17;;;2.20;;
18162;SDS011;9206;50.994;4.538;2023-03-23T16:33:35;8.23;;;2.73;;
18162;SDS011;9206;50.994;4.538;2023-03-23T16:40:05;6.37;;;2.50;;
18162;SDS011;9206;50.994;4.538;2023-03-23T16:43:05;5.20;;;2.40;;
18162;SDS011;9206;50.994;4.538;2023-03-23T16:46:12;2.93;;;2.07;;
18162;SDS011;9206;50.994;4.538;2023-03-23T16:49:01;4.33;;;2.77;;
18162;SDS011;9206;50.994;4.538;2023-03-23T16:55:15;5.03;;;2.23;;
18162;SDS011;9206;50.994;4.538;2023-03-23T16:56:21;4.33;;;2.80;;
18162;SDS011;9206;50.994;4.538;2023-03-23T16:59:34;5.90;;;2.43;;
18162;SDS011;9206;50.994;4.538;2023-03-23T17:02:24;5.77;;;2.50;;
18162;SDS011;9206;50.994;4.538;2023-03-23T17:05:14;7.30;;;2.63;;
18162;SDS011;9206;50.994;4.538;2023-03-23T17:11:30;6.43;;;2.57;;
18162;SDS011;9206;50.994;4.538;2023-03-23T17:20:45;8.87;;;2.77;;
18162;SDS011;9206;50.994;4.538;2023-03-23T17:23:34;5.33;;;2.40;;
18162;SDS011;9206;50.994;4.538;2023-03-23T17:26:35;6.67;;;2.83;;
18162;SDS011;9206;50.994;4.538;2023-03-23T17:29:23;10.03;;;2.57;;
18162;SDS011;9206;50.994;4.538;2023-03-23T17:32:12;4.63;;;2.27;;
18162;SDS011;9206;50.994;4.538;2023-03-23T17:38:29;4.67;;;2.67;;
18162;SDS011;9206;50.994;4.538;2023-03-23T17:49:59;5.17;;;2.37;;
18162;SDS011;9206;50.994;4.538;2023-03-23T17:52:46;3.30;;;2.17;;
18162;SDS011;9206;50.994;4.538;2023-03-23T17:55:39;8.57;;;2.70;;
18162;SDS011;9206;50.994;4.538;2023-03-23T17:58:27;6.70;;;2.90;;
18162;SDS011;9206;50.994;4.538;2023-03-23T18:01:15;4.63;;;2.47;;
18162;SDS011;9206;50.994;4.538;2023-03-23T18:04:04;8.30;;;5.23;;
18162;SDS011;9206;50.994;4.538;2023-03-23T18:07:26;5.57;;;3.00;;
18162;SDS011;9206;50.994;4.538;2023-03-23T18:10:14;8.37;;;4.00;;
18162;SDS011;9206;50.994;4.538;2023-03-23T18:13:01;7.97;;;2.73;;
18162;SDS011;9206;50.994;4.538;2023-03-23T18:15:51;6.80;;;3.30;;
18162;SDS011;9206;50.994;4.538;2023-03-23T18:22:00;6.63;;;2.87;;
18162;SDS011;9206;50.994;4.538;2023-03-23T18:24:49;9.47;;;3.20;;
18162;SDS011;9206;50.994;4.538;2023-03-23T18:27:52;8.07;;;3.07;;
18162;SDS011;9206;50.994;4.538;2023-03-23T18:34:09;10.63;;;3.07;;
18162;SDS011;9206;50.994;4.538;2023-03-23T18:47:27;5.33;;;2.60;;
18162;SDS011;9206;50.994;4.538;2023-03-23T18:57:13;7.13;;;2.97;;
18162;SDS011;9206;50.994;4.538;2023-03-23T19:04:07;7.13;;;3.17;;
18162;SDS011;9206;50.994;4.538;2023-03-23T19:06:59;8.00;;;2.63;;
18162;SDS011;9206;50.994;4.538;2023-03-23T19:10:39;9.83;;;2.90;;
18162;SDS011;9206;50.994;4.538;2023-03-23T19:21:12;6.57;;;3.00;;
18162;SDS011;9206;50.994;4.538;2023-03-23T19:25:14;6.43;;;2.70;;
18162;SDS011;9206;50.994;4.538;2023-03-23T19:27:21;4.93;;;2.73;;
18162;SDS011;9206;50.994;4.538;2023-03-23T19:44:23;4.03;;;2.33;;
18162;SDS011;9206;50.994;4.538;2023-03-23T19:54:09;8.10;;;2.67;;
18162;SDS011;9206;50.994;4.538;2023-03-23T20:08:53;3.60;;;1.90;;
18162;SDS011;9206;50.994;4.538;2023-03-23T20:11:50;4.53;;;2.27;;
18162;SDS011;9206;50.994;4.538;2023-03-23T20:18:28;4.27;;;2.10;;
18162;SDS011;9206;50.994;4.538;2023-03-23T20:28:33;4.60;;;2.40;;
18162;SDS011;9206;50.994;4.538;2023-03-23T20:31:22;4.07;;;3.13;;
18162;SDS011;9206;50.994;4.538;2023-03-23T20:34:16;3.40;;;2.70;;
18162;SDS011;9206;50.994;4.538;2023-03-23T20:37:24;4.97;;;2.10;;
18162;SDS011;9206;50.994;4.538;2023-03-23T20:44:25;4.13;;;2.30;;
18162;SDS011;9206;50.994;4.538;2023-03-23T20:47:15;5.37;;;2.80;;
18162;SDS011;9206;50.994;4.538;2023-03-23T20:50:05;6.53;;;2.43;;
18162;SDS011;9206;50.994;4.538;2023-03-23T20:58:11;6.40;;;2.47;;
18162;SDS011;9206;50.994;4.538;2023-03-23T21:05:48;4.10;;;2.00;;
18162;SDS011;9206;50.994;4.538;2023-03-23T21:08:19;3.40;;;2.20;;
18162;SDS011;9206;50.994;4.538;2023-03-23T21:11:08;5.00;;;2.60;;
18162;SDS011;9206;50.994;4.538;2023-03-23T21:14:05;2.90;;;2.20;;
18162;SDS011;9206;50.994;4.538;2023-03-23T21:16:54;5.50;;;2.33;;
18162;SDS011;9206;50.994;4.538;2023-03-23T21:22:40;4.77;;;2.60;;
18162;SDS011;9206;50.994;4.538;2023-03-23T21:29:05;3.60;;;2.57;;
18162;SDS011;9206;50.994;4.538;2023-03-23T21:32:03;4.17;;;2.23;;
18162;SDS011;9206;50.994;4.538;2023-03-23T21:38:03;3.30;;;2.27;;
18162;SDS011;9206;50.994;4.538;2023-03-23T21:41:15;3.03;;;2.37;;
18162;SDS011;9206;50.994;4.538;2023-03-23T21:47:30;4.40;;;2.33;;
18162;SDS011;9206;50.994;4.538;2023-03-23T21:53:01;3.90;;;2.50;;
18162;SDS011;9206;50.994;4.538;2023-03-23T21:56:57;2.57;;;2.37;;
18162;SDS011;9206;50.994;4.538;2023-03-23T21:59:47;3.57;;;2.63;;
18162;SDS011;9206;50.994;4.538;2023-03-23T22:06:10;3.40;;;2.30;;
18162;SDS011;9206;50.994;4.538;2023-03-23T22:09:48;2.97;;;2.20;;
18162;SDS011;9206;50.994;4.538;2023-03-23T22:30:39;3.57;;;2.30;;
18162;SDS011;9206;50.994;4.538;2023-03-23T22:33:29;2.67;;;2.37;;
18162;SDS011;9206;50.994;4.538;2023-03-23T22:42:35;4.00;;;2.30;;
18162;SDS011;9206;50.994;4.538;2023-03-23T22:45:24;4.87;;;3.10;;
18162;SDS011;9206;50.994;4.538;2023-03-23T22:48:16;6.20;;;2.50;;
18162;SDS011;9206;50.994;4.538;2023-03-23T22:57:55;2.60;;;2.43;;
18162;SDS011;9206;50.994;4.538;2023-03-23T23:04:03;3.47;;;2.60;;
18162;SDS011;9206;50.994;4.538;2023-03-23T23:06:52;5.60;;;2.50;;
18162;SDS011;9206;50.994;4.538;2023-03-23T23:13:23;2.60;;;2.50;;
18162;SDS011;9206;50.994;4.538;2023-03-23T23:16:25;3.50;;;2.60;;
18162;SDS011;9206;50.994;4.538;2023-03-23T23:20:12;3.00;;;2.53;;
18162;SDS011;9206;50.994;4.538;2023-03-23T23:23:13;3.33;;;2.40;;
18162;SDS011;9206;50.994;4.538;2023-03-23T23:26:47;2.77;;;2.53;;
18162;SDS011;9206;50.994;4.538;2023-03-23T23:29:49;3.03;;;2.70;;
18162;SDS011;9206;50.994;4.538;2023-03-23T23:32:48;2.33;;;2.13;;
18162;SDS011;9206;50.994;4.538;2023-03-23T23:39:30;2.40;;;2.20;;
18162;SDS011;9206;50.994;4.538;2023-03-23T23:42:22;2.50;;;2.30;;
18162;SDS011;9206;50.994;4.538;2023-03-23T23:59:07;2.17;;;1.83;;
